sensor_id;sensor_type;location;lat;lon;timestamp;pressure;altitude;pressure_sealevel;temperature;humidity
59435;BME280;45241;49.768;8.636;2023-06-01T00:01:40;100398.31;;;20.65;54.34
59435;BME280;45241;49.768;8.636;2023-06-01T00:04:07;100396.88;;;20.62;54.07
59435;BME280;45241;49.768;8.636;2023-06-01T00:06:33;100389.88;;;20.66;54.52
59435;BME280;45241;49.768;8.636;2023-06-01T00:08:58;100397.13;;;20.61;54.26
59435;BME280;45241;49.768;8.636;2023-06-01T00:11:24;100398.66;;;20.51;54.40
59435;BME280;45241;49.768;8.636;2023-06-01T00:13:50;100393.53;;;20.55;54.65
59435;BME280;45241;49.768;8.636;2023-06-01T00:16:16;100397.88;;;20.34;55.44
59435;BME280;45241;49.768;8.636;2023-06-01T00:18:42;100384.84;;;20.58;55.06
59435;BME280;45241;49.768;8.636;2023-06-01T00:21:08;100391.28;;;20.30;55.74
59435;BME280;45241;49.768;8.636;2023-06-01T00:23:33;100393.13;;;20.08;56.65
59435;BME280;45241;49.768;8.636;2023-06-01T00:26:02;100396.56;;;20.20;56.19
59435;BME280;45241;49.768;8.636;2023-06-01T00:28:27;100389.53;;;20.02;57.43
59435;BME280;45241;49.768;8.636;2023-06-01T00:30:53;100384.34;;;20.01;57.49
59435;BME280;45241;49.768;8.636;2023-06-01T00:33:19;100387.38;;;20.04;57.90
59435;BME280;45241;49.768;8.636;2023-06-01T00:35:45;100386.72;;;19.97;59.08
59435;BME280;45241;49.768;8.636;2023-06-01T00:38:10;100393.22;;;19.96;58.91
59435;BME280;45241;49.768;8.636;2023-06-01T00:40:36;100386.91;;;19.90;57.97
59435;BME280;45241;49.768;8.636;2023-06-01T00:43:01;100388.19;;;20.05;58.08
59435;BME280;45241;49.768;8.636;2023-06-01T00:45:26;100389.78;;;19.84;58.20
59435;BME280;45241;49.768;8.636;2023-06-01T00:47:52;100388.44;;;19.53;58.87
59435;BME280;45241;49.768;8.636;2023-06-01T00:50:17;100389.59;;;19.57;59.15
59435;BME280;45241;49.768;8.636;2023-06-01T00:52:43;100382.44;;;19.84;58.51
59435;BME280;45241;49.768;8.636;2023-06-01T00:55:10;100385.38;;;19.66;59.22
59435;BME280;45241;49.768;8.636;2023-06-01T00:57:37;100378.38;;;19.70;58.20
59435;BME280;45241;49.768;8.636;2023-06-01T01:00:03;100378.97;;;19.55;58.85
59435;BME280;45241;49.768;8.636;2023-06-01T01:02:38;100379.97;;;19.49;59.22
59435;BME280;45241;49.768;8.636;2023-06-01T01:05:08;100368.00;;;19.67;58.36
59435;BME280;45241;49.768;8.636;2023-06-01T01:07:58;100373.19;;;19.52;59.10
59435;BME280;45241;49.768;8.636;2023-06-01T01:13:34;100384.16;;;19.57;57.95
59435;BME280;45241;49.768;8.636;2023-06-01T01:16:24;100387.19;;;19.44;58.16
59435;BME280;45241;49.768;8.636;2023-06-01T01:21:26;100378.81;;;19.62;57.97
59435;BME280;45241;49.768;8.636;2023-06-01T01:26:59;100390.47;;;19.46;58.80
59435;BME280;45241;49.768;8.636;2023-06-01T01:29:31;100394.13;;;19.34;57.92
59435;BME280;45241;49.768;8.636;2023-06-01T01:31:59;100387.91;;;18.94;59.93
59435;BME280;45241;49.768;8.636;2023-06-01T01:34:27;100389.81;;;19.22;59.18
59435;BME280;45241;49.768;8.636;2023-06-01T01:36:54;100388.41;;;18.91;60.28
59435;BME280;45241;49.768;8.636;2023-06-01T01:39:19;100382.81;;;19.43;59.03
59435;BME280;45241;49.768;8.636;2023-06-01T01:41:45;100378.47;;;19.42;57.98
59435;BME280;45241;49.768;8.636;2023-06-01T01:44:10;100378.13;;;19.21;59.32
59435;BME280;45241;49.768;8.636;2023-06-01T01:49:28;100379.75;;;19.22;58.99
59435;BME280;45241;49.768;8.636;2023-06-01T01:54:24;100376.69;;;19.19;59.80
59435;BME280;45241;49.768;8.636;2023-06-01T01:56:53;100378.47;;;18.96;60.88
59435;BME280;45241;49.768;8.636;2023-06-01T01:59:22;100376.78;;;19.24;58.42
59435;BME280;45241;49.768;8.636;2023-06-01T02:01:48;100370.88;;;19.27;58.69
59435;BME280;45241;49.768;8.636;2023-06-01T02:04:13;100365.41;;;19.10;60.33
59435;BME280;45241;49.768;8.636;2023-06-01T02:06:39;100370.03;;;19.10;59.91
59435;BME280;45241;49.768;8.636;2023-06-01T02:09:04;100371.28;;;18.90;60.96
59435;BME280;45241;49.768;8.636;2023-06-01T02:11:32;100368.31;;;18.92;60.64
59435;BME280;45241;49.768;8.636;2023-06-01T02:13:58;100360.59;;;19.00;61.73
59435;BME280;45241;49.768;8.636;2023-06-01T02:16:23;100361.44;;;19.01;60.87
59435;BME280;45241;49.768;8.636;2023-06-01T02:18:48;100363.75;;;19.09;60.62
59435;BME280;45241;49.768;8.636;2023-06-01T02:21:14;100363.41;;;18.65;63.01
59435;BME280;45241;49.768;8.636;2023-06-01T02:23:40;100362.53;;;18.48;62.32
59435;BME280;45241;49.768;8.636;2023-06-01T02:26:08;100357.94;;;18.77;61.97
59435;BME280;45241;49.768;8.636;2023-06-01T02:28:33;100370.03;;;18.69;62.68
59435;BME280;45241;49.768;8.636;2023-06-01T02:31:01;100363.41;;;18.65;61.74
59435;BME280;45241;49.768;8.636;2023-06-01T02:33:26;100360.47;;;18.67;62.39
59435;BME280;45241;49.768;8.636;2023-06-01T02:35:51;100364.25;;;18.66;62.48
59435;BME280;45241;49.768;8.636;2023-06-01T02:38:17;100358.31;;;18.29;63.51
59435;BME280;45241;49.768;8.636;2023-06-01T02:40:42;100356.63;;;18.51;63.61
59435;BME280;45241;49.768;8.636;2023-06-01T02:43:08;100354.38;;;18.48;63.51
59435;BME280;45241;49.768;8.636;2023-06-01T02:45:33;100354.00;;;18.04;66.06
59435;BME280;45241;49.768;8.636;2023-06-01T02:47:58;100352.44;;;18.20;64.66
59435;BME280;45241;49.768;8.636;2023-06-01T02:50:24;100350.66;;;18.26;64.27
59435;BME280;45241;49.768;8.636;2023-06-01T02:52:50;100359.31;;;17.87;66.21
59435;BME280;45241;49.768;8.636;2023-06-01T02:55:15;100353.19;;;17.92;66.37
59435;BME280;45241;49.768;8.636;2023-06-01T02:57:41;100364.84;;;17.81;67.60
59435;BME280;45241;49.768;8.636;2023-06-01T03:00:06;100361.19;;;17.87;67.04
59435;BME280;45241;49.768;8.636;2023-06-01T03:02:44;100359.44;;;17.93;65.57
59435;BME280;45241;49.768;8.636;2023-06-01T03:05:10;100352.06;;;17.58;68.14
59435;BME280;45241;49.768;8.636;2023-06-01T03:07:43;100361.38;;;17.74;68.59
59435;BME280;45241;49.768;8.636;2023-06-01T03:10:08;100359.09;;;17.77;68.04
59435;BME280;45241;49.768;8.636;2023-06-01T03:12:34;100352.28;;;17.45;68.63
59435;BME280;45241;49.768;8.636;2023-06-01T03:14:59;100352.91;;;17.58;68.58
59435;BME280;45241;49.768;8.636;2023-06-01T03:17:25;100349.81;;;17.43;68.51
59435;BME280;45241;49.768;8.636;2023-06-01T03:19:50;100353.47;;;17.60;68.02
59435;BME280;45241;49.768;8.636;2023-06-01T03:22:15;100351.81;;;17.48;67.67
59435;BME280;45241;49.768;8.636;2023-06-01T03:24:41;100358.47;;;17.22;69.35
59435;BME280;45241;49.768;8.636;2023-06-01T03:27:07;100361.25;;;17.45;69.03
59435;BME280;45241;49.768;8.636;2023-06-01T03:29:32;100358.19;;;17.42;68.84
59435;BME280;45241;49.768;8.636;2023-06-01T03:31:58;100355.13;;;17.50;68.44
59435;BME280;45241;49.768;8.636;2023-06-01T03:34:24;100367.72;;;17.44;69.54
59435;BME280;45241;49.768;8.636;2023-06-01T03:36:50;100358.28;;;17.35;68.79
59435;BME280;45241;49.768;8.636;2023-06-01T03:39:15;100357.50;;;17.05;71.05
59435;BME280;45241;49.768;8.636;2023-06-01T03:41:42;100358.09;;;17.07;70.39
59435;BME280;45241;49.768;8.636;2023-06-01T03:44:09;100362.94;;;17.16;70.81
59435;BME280;45241;49.768;8.636;2023-06-01T03:46:34;100363.16;;;17.03;71.29
59435;BME280;45241;49.768;8.636;2023-06-01T03:49:00;100359.25;;;17.11;70.96
59435;BME280;45241;49.768;8.636;2023-06-01T03:51:25;100356.91;;;17.02;70.78
59435;BME280;45241;49.768;8.636;2023-06-01T03:53:51;100366.28;;;16.88;72.43
59435;BME280;45241;49.768;8.636;2023-06-01T03:56:16;100370.28;;;16.97;72.17
59435;BME280;45241;49.768;8.636;2023-06-01T03:58:42;100363.00;;;16.98;72.10
59435;BME280;45241;49.768;8.636;2023-06-01T04:01:07;100370.28;;;16.97;71.28
59435;BME280;45241;49.768;8.636;2023-06-01T04:03:33;100368.84;;;16.65;74.08
59435;BME280;45241;49.768;8.636;2023-06-01T04:05:58;100371.75;;;16.82;74.16
59435;BME280;45241;49.768;8.636;2023-06-01T04:08:27;100373.06;;;16.61;74.67
59435;BME280;45241;49.768;8.636;2023-06-01T04:10:54;100375.72;;;16.97;73.84
59435;BME280;45241;49.768;8.636;2023-06-01T04:13:19;100376.75;;;16.96;73.82
59435;BME280;45241;49.768;8.636;2023-06-01T04:15:45;100376.13;;;16.83;74.94
59435;BME280;45241;49.768;8.636;2023-06-01T04:18:11;100374.41;;;16.70;75.29
59435;BME280;45241;49.768;8.636;2023-06-01T04:20:37;100378.00;;;16.82;74.31
59435;BME280;45241;49.768;8.636;2023-06-01T04:23:02;100384.75;;;16.91;73.80
59435;BME280;45241;49.768;8.636;2023-06-01T04:25:27;100382.09;;;17.03;73.59
59435;BME280;45241;49.768;8.636;2023-06-01T04:27:53;100374.06;;;16.96;75.06
59435;BME280;45241;49.768;8.636;2023-06-01T04:30:20;100373.63;;;16.99;75.94
59435;BME280;45241;49.768;8.636;2023-06-01T04:32:47;100379.94;;;16.93;76.52
59435;BME280;45241;49.768;8.636;2023-06-01T04:35:13;100385.00;;;17.31;74.89
59435;BME280;45241;49.768;8.636;2023-06-01T04:37:40;100382.69;;;17.47;72.72
59435;BME280;45241;49.768;8.636;2023-06-01T04:40:08;100387.63;;;17.38;74.78
59435;BME280;45241;49.768;8.636;2023-06-01T04:42:35;100390.78;;;17.35;76.00
59435;BME280;45241;49.768;8.636;2023-06-01T04:45:02;100398.25;;;17.63;73.55
59435;BME280;45241;49.768;8.636;2023-06-01T04:47:31;100404.88;;;17.55;73.57
59435;BME280;45241;49.768;8.636;2023-06-01T04:49:57;100398.97;;;17.58;73.16
59435;BME280;45241;49.768;8.636;2023-06-01T04:52:23;100395.56;;;17.63;75.30
59435;BME280;45241;49.768;8.636;2023-06-01T04:54:48;100394.88;;;17.68;73.29
59435;BME280;45241;49.768;8.636;2023-06-01T04:57:14;100406.22;;;17.88;70.92
59435;BME280;45241;49.768;8.636;2023-06-01T04:59:42;100397.03;;;17.89;71.78
59435;BME280;45241;49.768;8.636;2023-06-01T05:02:08;100400.13;;;18.04;72.25
59435;BME280;45241;49.768;8.636;2023-06-01T05:04:33;100399.28;;;18.04;71.75
59435;BME280;45241;49.768;8.636;2023-06-01T05:07:00;100405.06;;;18.07;71.34
59435;BME280;45241;49.768;8.636;2023-06-01T05:09:25;100397.84;;;18.01;70.37
59435;BME280;45241;49.768;8.636;2023-06-01T05:11:51;100394.91;;;18.14;69.99
59435;BME280;45241;49.768;8.636;2023-06-01T05:14:16;100397.28;;;18.23;68.78
59435;BME280;45241;49.768;8.636;2023-06-01T05:16:42;100395.47;;;18.28;68.51
59435;BME280;45241;49.768;8.636;2023-06-01T05:19:07;100395.28;;;18.30;68.44
59435;BME280;45241;49.768;8.636;2023-06-01T05:21:33;100399.16;;;18.34;68.44
59435;BME280;45241;49.768;8.636;2023-06-01T05:23:58;100397.50;;;18.33;67.39
59435;BME280;45241;49.768;8.636;2023-06-01T05:26:23;100394.03;;;18.49;67.54
59435;BME280;45241;49.768;8.636;2023-06-01T05:28:48;100395.66;;;18.62;68.76
59435;BME280;45241;49.768;8.636;2023-06-01T05:31:14;100394.34;;;18.64;69.24
59435;BME280;45241;49.768;8.636;2023-06-01T05:33:39;100405.00;;;18.54;68.87
59435;BME280;45241;49.768;8.636;2023-06-01T05:36:05;100400.59;;;18.65;69.51
59435;BME280;45241;49.768;8.636;2023-06-01T05:38:31;100400.25;;;18.73;68.16
59435;BME280;45241;49.768;8.636;2023-06-01T05:40:56;100403.31;;;18.65;68.25
59435;BME280;45241;49.768;8.636;2023-06-01T05:43:22;100394.81;;;18.85;68.53
59435;BME280;45241;49.768;8.636;2023-06-01T05:45:47;100403.63;;;18.92;67.03
59435;BME280;45241;49.768;8.636;2023-06-01T05:48:13;100401.81;;;18.69;67.88
59435;BME280;45241;49.768;8.636;2023-06-01T05:50:40;100403.44;;;18.82;67.18
59435;BME280;45241;49.768;8.636;2023-06-01T05:53:06;100402.22;;;18.89;67.25
59435;BME280;45241;49.768;8.636;2023-06-01T05:55:32;100404.66;;;19.02;65.89
59435;BME280;45241;49.768;8.636;2023-06-01T05:57:57;100405.22;;;19.04;65.96
59435;BME280;45241;49.768;8.636;2023-06-01T06:00:22;100411.69;;;19.15;66.51
59435;BME280;45241;49.768;8.636;2023-06-01T06:02:48;100414.16;;;19.17;67.32
59435;BME280;45241;49.768;8.636;2023-06-01T06:05:14;100417.44;;;19.19;67.03
59435;BME280;45241;49.768;8.636;2023-06-01T06:07:39;100412.38;;;19.22;67.21
59435;BME280;45241;49.768;8.636;2023-06-01T06:10:05;100408.09;;;19.26;66.94
59435;BME280;45241;49.768;8.636;2023-06-01T06:12:31;100406.72;;;19.57;66.54
59435;BME280;45241;49.768;8.636;2023-06-01T06:14:56;100400.59;;;19.79;65.21
59435;BME280;45241;49.768;8.636;2023-06-01T06:17:22;100406.91;;;19.84;64.04
59435;BME280;45241;49.768;8.636;2023-06-01T06:19:47;100404.63;;;19.93;63.03
59435;BME280;45241;49.768;8.636;2023-06-01T06:22:14;100403.38;;;20.01;64.08
59435;BME280;45241;49.768;8.636;2023-06-01T06:24:39;100400.31;;;20.14;64.06
59435;BME280;45241;49.768;8.636;2023-06-01T06:27:05;100397.91;;;20.17;63.88
59435;BME280;45241;49.768;8.636;2023-06-01T06:29:31;100398.72;;;20.18;64.34
59435;BME280;45241;49.768;8.636;2023-06-01T06:31:56;100398.56;;;20.24;63.92
59435;BME280;45241;49.768;8.636;2023-06-01T06:34:22;100397.34;;;20.15;63.02
59435;BME280;45241;49.768;8.636;2023-06-01T06:36:47;100399.97;;;20.27;62.93
59435;BME280;45241;49.768;8.636;2023-06-01T06:39:12;100394.97;;;20.41;62.91
59435;BME280;45241;49.768;8.636;2023-06-01T06:41:40;100399.13;;;20.48;61.68
59435;BME280;45241;49.768;8.636;2023-06-01T06:44:05;100393.31;;;20.62;62.08
59435;BME280;45241;49.768;8.636;2023-06-01T06:46:31;100398.31;;;20.65;61.11
59435;BME280;45241;49.768;8.636;2023-06-01T06:48:56;100400.78;;;20.66;61.02
59435;BME280;45241;49.768;8.636;2023-06-01T06:51:21;100400.56;;;20.73;60.40
59435;BME280;45241;49.768;8.636;2023-06-01T06:53:47;100409.44;;;20.85;60.01
59435;BME280;45241;49.768;8.636;2023-06-01T06:56:12;100400.66;;;20.78;59.71
59435;BME280;45241;49.768;8.636;2023-06-01T06:58:37;100402.97;;;20.91;60.68
59435;BME280;45241;49.768;8.636;2023-06-01T07:01:03;100406.88;;;21.00;60.82
59435;BME280;45241;49.768;8.636;2023-06-01T07:03:31;100407.56;;;21.12;59.89
59435;BME280;45241;49.768;8.636;2023-06-01T07:05:57;100412.16;;;21.34;60.78
59435;BME280;45241;49.768;8.636;2023-06-01T07:08:22;100409.72;;;21.37;59.17
59435;BME280;45241;49.768;8.636;2023-06-01T07:10:47;100411.16;;;21.45;59.92
59435;BME280;45241;49.768;8.636;2023-06-01T07:13:13;100412.84;;;21.51;60.91
59435;BME280;45241;49.768;8.636;2023-06-01T07:15:38;100413.06;;;21.71;61.26
59435;BME280;45241;49.768;8.636;2023-06-01T07:18:03;100416.38;;;21.79;59.78
59435;BME280;45241;49.768;8.636;2023-06-01T07:20:29;100410.00;;;21.63;60.96
59435;BME280;45241;49.768;8.636;2023-06-01T07:22:54;100410.94;;;21.79;60.70
59435;BME280;45241;49.768;8.636;2023-06-01T07:25:19;100409.75;;;22.01;59.68
59435;BME280;45241;49.768;8.636;2023-06-01T07:27:45;100401.34;;;22.08;59.48
59435;BME280;45241;49.768;8.636;2023-06-01T07:30:11;100403.34;;;22.28;57.55
59435;BME280;45241;49.768;8.636;2023-06-01T07:32:37;100401.81;;;22.37;56.12
59435;BME280;45241;49.768;8.636;2023-06-01T07:35:03;100397.50;;;22.46;55.90
59435;BME280;45241;49.768;8.636;2023-06-01T07:37:30;100394.44;;;22.38;55.21
59435;BME280;45241;49.768;8.636;2023-06-01T07:39:56;100393.00;;;22.30;55.38
59435;BME280;45241;49.768;8.636;2023-06-01T07:42:22;100401.66;;;22.59;55.23
59435;BME280;45241;49.768;8.636;2023-06-01T07:44:47;100404.22;;;22.86;55.46
59435;BME280;45241;49.768;8.636;2023-06-01T07:47:13;100405.88;;;22.92;55.69
59435;BME280;45241;49.768;8.636;2023-06-01T07:49:38;100401.81;;;23.00;54.34
59435;BME280;45241;49.768;8.636;2023-06-01T07:52:04;100401.72;;;22.84;54.18
59435;BME280;45241;49.768;8.636;2023-06-01T07:54:31;100396.84;;;22.86;52.06
59435;BME280;45241;49.768;8.636;2023-06-01T07:56:56;100394.66;;;22.88;52.29
59435;BME280;45241;49.768;8.636;2023-06-01T07:59:22;100401.25;;;22.98;53.23
59435;BME280;45241;49.768;8.636;2023-06-01T08:01:49;100394.78;;;23.24;53.47
59435;BME280;45241;49.768;8.636;2023-06-01T08:04:15;100396.16;;;23.32;53.75
59435;BME280;45241;49.768;8.636;2023-06-01T08:06:42;100392.63;;;23.52;53.70
59435;BME280;45241;49.768;8.636;2023-06-01T08:09:08;100390.97;;;23.61;53.88
59435;BME280;45241;49.768;8.636;2023-06-01T08:11:35;100396.69;;;23.34;53.19
59435;BME280;45241;49.768;8.636;2023-06-01T08:14:01;100395.59;;;23.60;53.77
59435;BME280;45241;49.768;8.636;2023-06-01T08:16:28;100386.56;;;23.34;53.19
59435;BME280;45241;49.768;8.636;2023-06-01T08:18:54;100396.44;;;23.71;54.18
59435;BME280;45241;49.768;8.636;2023-06-01T08:21:20;100392.91;;;23.96;53.58
59435;BME280;45241;49.768;8.636;2023-06-01T08:23:46;100388.19;;;24.22;52.32
59435;BME280;45241;49.768;8.636;2023-06-01T08:26:12;100390.91;;;24.27;51.79
59435;BME280;45241;49.768;8.636;2023-06-01T08:28:37;100378.88;;;24.28;51.72
59435;BME280;45241;49.768;8.636;2023-06-01T08:31:03;100384.88;;;24.35;52.15
59435;BME280;45241;49.768;8.636;2023-06-01T08:33:29;100378.03;;;24.27;51.34
59435;BME280;45241;49.768;8.636;2023-06-01T08:35:54;100378.78;;;24.48;51.80
59435;BME280;45241;49.768;8.636;2023-06-01T08:38:20;100378.63;;;24.89;51.99
59435;BME280;45241;49.768;8.636;2023-06-01T08:40:46;100375.41;;;24.82;51.60
59435;BME280;45241;49.768;8.636;2023-06-01T08:43:18;100382.38;;;25.03;49.31
59435;BME280;45241;49.768;8.636;2023-06-01T08:45:44;100379.94;;;25.07;48.99
59435;BME280;45241;49.768;8.636;2023-06-01T08:48:15;100367.03;;;25.02;50.27
59435;BME280;45241;49.768;8.636;2023-06-01T08:50:41;100374.56;;;25.26;50.31
59435;BME280;45241;49.768;8.636;2023-06-01T08:53:08;100371.84;;;25.26;49.65
59435;BME280;45241;49.768;8.636;2023-06-01T08:55:33;100371.13;;;25.10;49.79
59435;BME280;45241;49.768;8.636;2023-06-01T08:57:59;100373.47;;;25.27;48.74
59435;BME280;45241;49.768;8.636;2023-06-01T09:00:25;100366.28;;;25.31;48.81
59435;BME280;45241;49.768;8.636;2023-06-01T09:02:51;100364.34;;;25.41;48.42
59435;BME280;45241;49.768;8.636;2023-06-01T09:05:16;100362.25;;;25.23;46.86
59435;BME280;45241;49.768;8.636;2023-06-01T09:07:42;100359.66;;;25.42;47.35
59435;BME280;45241;49.768;8.636;2023-06-01T09:10:07;100360.75;;;25.75;46.57
59435;BME280;45241;49.768;8.636;2023-06-01T09:12:33;100362.84;;;25.88;46.74
59435;BME280;45241;49.768;8.636;2023-06-01T09:15:16;100353.09;;;25.38;46.46
59435;BME280;45241;49.768;8.636;2023-06-01T09:17:43;100363.44;;;25.51;47.42
59435;BME280;45241;49.768;8.636;2023-06-01T09:20:28;100367.94;;;26.00;46.76
59435;BME280;45241;49.768;8.636;2023-06-01T09:22:54;100360.31;;;26.21;45.52
59435;BME280;45241;49.768;8.636;2023-06-01T09:25:27;100357.94;;;26.14;45.85
59435;BME280;45241;49.768;8.636;2023-06-01T09:27:53;100350.28;;;26.11;45.96
59435;BME280;45241;49.768;8.636;2023-06-01T09:30:21;100354.19;;;26.53;46.26
59435;BME280;45241;49.768;8.636;2023-06-01T09:32:47;100345.84;;;26.58;46.00
59435;BME280;45241;49.768;8.636;2023-06-01T09:37:59;100351.00;;;26.64;45.82
59435;BME280;45241;49.768;8.636;2023-06-01T09:40:28;100344.00;;;26.72;45.30
59435;BME280;45241;49.768;8.636;2023-06-01T09:42:53;100345.44;;;26.46;45.20
59435;BME280;45241;49.768;8.636;2023-06-01T09:45:20;100345.44;;;26.46;46.06
59435;BME280;45241;49.768;8.636;2023-06-01T09:47:47;100343.78;;;26.68;44.54
59435;BME280;45241;49.768;8.636;2023-06-01T09:50:35;100352.44;;;27.00;45.24
59435;BME280;45241;49.768;8.636;2023-06-01T09:53:00;100344.75;;;27.02;45.21
59435;BME280;45241;49.768;8.636;2023-06-01T09:55:26;100345.16;;;27.09;45.40
59435;BME280;45241;49.768;8.636;2023-06-01T09:57:51;100336.09;;;27.46;43.13
59435;BME280;45241;49.768;8.636;2023-06-01T10:00:24;100340.78;;;27.08;44.44
59435;BME280;45241;49.768;8.636;2023-06-01T10:02:51;100335.66;;;27.20;44.79
59435;BME280;45241;49.768;8.636;2023-06-01T10:05:17;100333.25;;;27.32;43.30
59435;BME280;45241;49.768;8.636;2023-06-01T10:07:43;100331.94;;;27.30;42.98
59435;BME280;45241;49.768;8.636;2023-06-01T10:10:13;100327.25;;;27.30;43.77
59435;BME280;45241;49.768;8.636;2023-06-01T10:12:39;100323.69;;;27.11;43.71
59435;BME280;45241;49.768;8.636;2023-06-01T10:15:05;100328.25;;;27.34;42.93
59435;BME280;45241;49.768;8.636;2023-06-01T10:17:32;100320.13;;;27.75;42.98
59435;BME280;45241;49.768;8.636;2023-06-01T10:19:58;100317.38;;;27.75;43.02
59435;BME280;45241;49.768;8.636;2023-06-01T10:22:24;100320.28;;;27.98;41.91
59435;BME280;45241;49.768;8.636;2023-06-01T10:24:55;100322.41;;;28.01;41.63
59435;BME280;45241;49.768;8.636;2023-06-01T10:27:27;100319.59;;;27.60;41.44
59435;BME280;45241;49.768;8.636;2023-06-01T10:29:55;100312.94;;;27.79;40.95
59435;BME280;45241;49.768;8.636;2023-06-01T10:32:43;100311.91;;;27.89;40.95
59435;BME280;45241;49.768;8.636;2023-06-01T10:40:33;100298.75;;;28.41;39.61
59435;BME280;45241;49.768;8.636;2023-06-01T10:42:59;100296.00;;;28.27;39.04
59435;BME280;45241;49.768;8.636;2023-06-01T10:48:03;100288.22;;;28.43;38.52
59435;BME280;45241;49.768;8.636;2023-06-01T10:50:29;100287.94;;;28.17;38.23
59435;BME280;45241;49.768;8.636;2023-06-01T10:52:56;100281.72;;;28.39;40.02
59435;BME280;45241;49.768;8.636;2023-06-01T10:55:23;100288.94;;;28.62;39.23
59435;BME280;45241;49.768;8.636;2023-06-01T10:57:49;100289.59;;;28.82;38.66
59435;BME280;45241;49.768;8.636;2023-06-01T11:00:21;100288.41;;;28.74;38.52
59435;BME280;45241;49.768;8.636;2023-06-01T11:05:35;100284.78;;;28.37;38.53
59435;BME280;45241;49.768;8.636;2023-06-01T11:08:02;100278.06;;;28.80;39.46
59435;BME280;45241;49.768;8.636;2023-06-01T11:13:26;100279.31;;;29.10;38.59
59435;BME280;45241;49.768;8.636;2023-06-01T11:21:08;100269.31;;;29.00;38.52
59435;BME280;45241;49.768;8.636;2023-06-01T11:23:34;100267.56;;;29.04;38.00
59435;BME280;45241;49.768;8.636;2023-06-01T11:26:05;100262.06;;;29.57;37.86
59435;BME280;45241;49.768;8.636;2023-06-01T11:28:31;100268.38;;;29.49;36.65
59435;BME280;45241;49.768;8.636;2023-06-01T11:30:58;100262.56;;;29.91;36.55
59435;BME280;45241;49.768;8.636;2023-06-01T11:33:27;100266.66;;;29.62;36.15
59435;BME280;45241;49.768;8.636;2023-06-01T11:36:03;100267.19;;;29.19;36.34
59435;BME280;45241;49.768;8.636;2023-06-01T11:38:34;100257.09;;;29.37;35.91
59435;BME280;45241;49.768;8.636;2023-06-01T11:41:03;100251.34;;;28.53;36.65
59435;BME280;45241;49.768;8.636;2023-06-01T11:43:30;100250.91;;;29.63;36.90
59435;BME280;45241;49.768;8.636;2023-06-01T11:46:03;100241.50;;;29.72;36.02
59435;BME280;45241;49.768;8.636;2023-06-01T11:48:29;100241.22;;;29.43;36.12
59435;BME280;45241;49.768;8.636;2023-06-01T11:50:55;100248.75;;;29.59;36.36
59435;BME280;45241;49.768;8.636;2023-06-01T11:53:21;100240.34;;;29.65;36.60
59435;BME280;45241;49.768;8.636;2023-06-01T11:55:54;100245.56;;;29.66;36.35
59435;BME280;45241;49.768;8.636;2023-06-01T11:58:27;100237.97;;;30.29;36.26
59435;BME280;45241;49.768;8.636;2023-06-01T12:00:54;100233.94;;;30.43;36.13
59435;BME280;45241;49.768;8.636;2023-06-01T12:03:20;100239.19;;;30.80;35.99
59435;BME280;45241;49.768;8.636;2023-06-01T12:05:46;100239.94;;;30.45;35.21
59435;BME280;45241;49.768;8.636;2023-06-01T12:08:22;100240.94;;;30.50;36.18
59435;BME280;45241;49.768;8.636;2023-06-01T12:10:50;100228.09;;;30.54;35.28
59435;BME280;45241;49.768;8.636;2023-06-01T12:13:17;100232.13;;;30.47;34.75
59435;BME280;45241;49.768;8.636;2023-06-01T12:15:43;100237.09;;;30.02;34.99
59435;BME280;45241;49.768;8.636;2023-06-01T12:18:08;100220.25;;;29.19;35.34
59435;BME280;45241;49.768;8.636;2023-06-01T12:20:39;100226.91;;;28.96;36.60
59435;BME280;45241;49.768;8.636;2023-06-01T12:25:34;100223.06;;;30.64;34.55
59435;BME280;45241;49.768;8.636;2023-06-01T12:28:06;100216.84;;;30.50;34.45
59435;BME280;45241;49.768;8.636;2023-06-01T12:30:33;100217.16;;;30.48;34.32
59435;BME280;45241;49.768;8.636;2023-06-01T12:32:58;100219.25;;;30.26;34.26
59435;BME280;45241;49.768;8.636;2023-06-01T12:35:25;100207.94;;;30.79;35.23
59435;BME280;45241;49.768;8.636;2023-06-01T12:38:06;100216.50;;;30.52;35.23
59435;BME280;45241;49.768;8.636;2023-06-01T12:40:33;100212.31;;;29.88;35.84
59435;BME280;45241;49.768;8.636;2023-06-01T12:42:59;100203.50;;;31.04;35.17
59435;BME280;45241;49.768;8.636;2023-06-01T12:45:24;100207.44;;;30.86;32.84
59435;BME280;45241;49.768;8.636;2023-06-01T12:47:50;100202.72;;;30.86;34.75
59435;BME280;45241;49.768;8.636;2023-06-01T12:50:15;100202.53;;;30.91;34.53
59435;BME280;45241;49.768;8.636;2023-06-01T12:52:41;100194.25;;;30.74;33.57
59435;BME280;45241;49.768;8.636;2023-06-01T12:55:09;100193.78;;;30.63;34.40
59435;BME280;45241;49.768;8.636;2023-06-01T12:57:36;100185.81;;;29.79;34.57
59435;BME280;45241;49.768;8.636;2023-06-01T13:00:03;100179.53;;;31.17;33.93
59435;BME280;45241;49.768;8.636;2023-06-01T13:02:30;100185.41;;;31.15;32.11
59435;BME280;45241;49.768;8.636;2023-06-01T13:04:55;100177.47;;;31.05;33.86
59435;BME280;45241;49.768;8.636;2023-06-01T13:07:23;100173.00;;;31.30;33.56
59435;BME280;45241;49.768;8.636;2023-06-01T13:09:49;100164.34;;;31.78;32.00
59435;BME280;45241;49.768;8.636;2023-06-01T13:12:14;100177.56;;;31.26;31.17
59435;BME280;45241;49.768;8.636;2023-06-01T13:14:39;100171.22;;;31.25;32.09
59435;BME280;45241;49.768;8.636;2023-06-01T13:17:05;100173.22;;;31.54;31.98
59435;BME280;45241;49.768;8.636;2023-06-01T13:19:30;100156.09;;;31.61;32.33
59435;BME280;45241;49.768;8.636;2023-06-01T13:21:56;100170.72;;;31.15;33.07
59435;BME280;45241;49.768;8.636;2023-06-01T13:24:22;100154.81;;;31.58;31.36
59435;BME280;45241;49.768;8.636;2023-06-01T13:26:48;100159.69;;;31.91;31.40